Time;durP1;ratioP1;P1;durP2;ratioP2;P2;SDS_P1;SDS_P2;PMS_P1;PMS_P2;Temp;Humidity;BMP_temperature;BMP_pressure;BME280_temperature;BME280_humidity;BME280_pressure;Samples;Min_cycle;Max_cycle;Signal;HPM_P1;HPM_P2
2024/02/12 00:00:38;;;;;;;906.37;839.63;;;7.80;99.90;;;;;;5055388;28;20516;-68
2024/02/12 00:03:06;;;;;;;889.50;824.10;;;7.80;99.90;;;;;;5054885;28;20482;-68
2024/02/12 00:05:36;;;;;;;887.33;823.87;;;7.90;99.90;;;;;;5055434;28;20485;-68
2024/02/12 00:08:04;;;;;;;890.33;825.70;;;8.00;99.90;;;;;;5055018;28;20501;-68
2024/02/12 00:10:31;;;;;;;884.77;822.53;;;8.10;99.90;;;;;;5055433;28;20458;-68
2024/02/12 00:12:58;;;;;;;885.17;822.70;;;8.10;99.90;;;;;;5054868;28;20846;-69
2024/02/12 00:15:25;;;;;;;877.37;814.23;;;8.10;99.90;;;;;;5055227;28;20965;-69
2024/02/12 00:17:57;;;;;;;875.33;813.93;;;8.20;99.90;;;;;;5055207;28;20955;-68
2024/02/12 00:20:23;;;;;;;872.03;812.27;;;8.20;99.90;;;;;;5055108;28;20534;-68
2024/02/12 00:22:50;;;;;;;849.90;791.60;;;8.20;99.90;;;;;;5054574;28;20483;-68
2024/02/12 00:25:18;;;;;;;857.43;798.77;;;8.30;99.90;;;;;;5054963;28;20475;-68
2024/02/12 00:27:47;;;;;;;849.53;792.83;;;8.30;99.90;;;;;;5054772;28;20514;-66
2024/02/12 00:30:14;;;;;;;846.73;789.23;;;8.30;99.90;;;;;;5054651;28;20451;-66
2024/02/12 00:32:43;;;;;;;844.40;788.43;;;8.30;99.90;;;;;;5054489;28;20471;-65
2024/02/12 00:35:11;;;;;;;833.67;780.17;;;8.30;99.90;;;;;;5054812;28;20447;-66
2024/02/12 00:37:38;;;;;;;848.17;795.53;;;8.30;99.90;;;;;;5052201;28;20451;-66
2024/02/12 00:40:09;;;;;;;854.17;801.63;;;8.30;99.90;;;;;;5054785;28;20451;-66
2024/02/12 00:42:36;;;;;;;844.97;794.10;;;8.30;99.90;;;;;;5054080;28;20481;-64
2024/02/12 00:45:06;;;;;;;847.13;795.87;;;8.30;99.90;;;;;;5054543;28;20469;-66
2024/02/12 00:47:34;;;;;;;849.57;798.30;;;8.30;99.90;;;;;;5054741;28;20459;-66
2024/02/12 00:50:02;;;;;;;852.17;800.80;;;8.40;99.90;;;;;;5054677;28;20546;-65
2024/02/12 00:52:30;;;;;;;854.70;802.57;;;8.30;99.90;;;;;;5055234;28;20846;-66
2024/02/12 00:54:56;;;;;;;859.67;806.90;;;8.30;99.90;;;;;;5040582;28;20443;-66
2024/02/12 00:57:23;;;;;;;863.23;810.77;;;8.30;99.90;;;;;;5054293;28;20509;-66
2024/02/12 00:59:50;;;;;;;870.40;817.00;;;8.30;99.90;;;;;;5054157;28;20470;-66
2024/02/12 01:02:18;;;;;;;870.73;816.67;;;8.30;99.90;;;;;;5054140;28;20471;-66
2024/02/12 01:04:46;;;;;;;860.07;806.23;;;8.30;99.90;;;;;;5054423;28;20451;-66
2024/02/12 01:07:14;;;;;;;865.67;811.43;;;8.30;99.90;;;;;;5053798;28;21163;-66
2024/02/12 01:09:42;;;;;;;873.23;818.60;;;8.30;99.90;;;;;;5053859;28;21001;-66
2024/02/12 01:12:09;;;;;;;882.43;826.77;;;8.30;99.90;;;;;;5053844;28;20967;-66
2024/02/12 01:14:36;;;;;;;879.23;824.07;;;8.30;99.90;;;;;;5054319;28;20467;-66
2024/02/12 01:17:04;;;;;;;880.73;824.17;;;8.30;99.90;;;;;;5054310;28;20452;-66
2024/02/12 01:19:33;;;;;;;881.50;824.60;;;8.30;99.90;;;;;;5054191;28;20463;-66
2024/02/12 01:22:05;;;;;;;881.10;823.87;;;8.30;99.90;;;;;;5051681;28;20452;-66
2024/02/12 01:24:32;;;;;;;880.47;821.87;;;8.30;99.90;;;;;;5054014;28;20457;-65
2024/02/12 01:27:00;;;;;;;873.23;816.43;;;8.40;99.90;;;;;;5053905;28;20486;-66
2024/02/12 01:29:29;;;;;;;875.80;819.07;;;8.30;99.90;;;;;;5054339;28;20462;-67
2024/02/12 01:31:56;;;;;;;875.53;818.43;;;8.40;99.90;;;;;;5045406;28;20450;-66
2024/02/12 01:34:23;;;;;;;883.60;823.83;;;8.30;99.90;;;;;;5054010;28;20482;-66
2024/02/12 01:36:52;;;;;;;883.67;825.60;;;8.30;99.90;;;;;;5053546;28;20443;-65
2024/02/12 01:39:19;;;;;;;888.00;827.43;;;8.30;99.90;;;;;;5052158;28;20447;-66
2024/02/12 01:41:46;;;;;;;885.07;824.17;;;8.30;99.90;;;;;;5053459;28;20447;-66
2024/02/12 01:44:14;;;;;;;882.87;822.30;;;8.30;99.90;;;;;;5053725;28;20478;-66
2024/02/12 01:46:41;;;;;;;883.27;822.27;;;8.40;99.90;;;;;;5053463;28;20483;-66
2024/02/12 01:49:10;;;;;;;891.70;830.87;;;8.30;99.90;;;;;;5053634;28;20459;-66
2024/02/12 01:51:37;;;;;;;887.80;826.70;;;8.30;99.90;;;;;;5052678;28;20491;-66
2024/02/12 01:54:07;;;;;;;893.47;831.97;;;8.30;99.90;;;;;;5053593;28;20475;-66
2024/02/12 01:56:35;;;;;;;878.70;817.73;;;8.30;99.90;;;;;;5053241;28;20454;-66
2024/02/12 01:59:05;;;;;;;881.70;821.83;;;8.30;99.90;;;;;;5053473;28;20528;-65
2024/02/12 02:01:33;;;;;;;885.43;825.37;;;8.30;99.90;;;;;;5052967;28;20538;-65
2024/02/12 02:04:01;;;;;;;877.10;818.00;;;8.30;99.90;;;;;;5052713;28;20478;-65
2024/02/12 02:06:29;;;;;;;880.70;821.60;;;8.30;99.90;;;;;;5053067;28;20490;-66
2024/02/12 02:08:56;;;;;;;862.40;805.00;;;8.30;99.90;;;;;;5046283;28;20451;-66
2024/02/12 02:11:26;;;;;;;864.90;806.50;;;8.30;99.90;;;;;;5052760;28;20466;-66
2024/02/12 02:13:54;;;;;;;868.80;810.70;;;8.40;99.90;;;;;;5052554;28;20475;-66
2024/02/12 02:16:21;;;;;;;861.83;804.83;;;8.30;99.90;;;;;;5052847;28;20455;-65
2024/02/12 02:18:50;;;;;;;865.40;807.87;;;8.30;99.90;;;;;;5052959;28;20471;-66
2024/02/12 02:21:18;;;;;;;858.50;802.47;;;8.30;99.90;;;;;;5052664;28;20991;-66
2024/02/12 02:23:45;;;;;;;862.67;806.60;;;8.30;99.90;;;;;;5052427;28;20879;-65
2024/02/12 02:26:13;;;;;;;868.07;811.20;;;8.40;99.90;;;;;;5052717;28;21012;-66
2024/02/12 02:28:40;;;;;;;856.83;801.27;;;8.30;99.90;;;;;;5052672;28;20451;-66
2024/02/12 02:31:07;;;;;;;851.90;796.40;;;8.40;99.90;;;;;;5052367;28;20462;-65
2024/02/12 02:33:35;;;;;;;840.10;785.50;;;8.30;99.90;;;;;;5048370;28;20477;-65
2024/02/12 02:36:02;;;;;;;843.90;789.77;;;8.40;99.90;;;;;;5052639;28;20465;-65
2024/02/12 02:38:29;;;;;;;847.67;793.27;;;8.40;99.90;;;;;;5050099;28;20455;-66
2024/02/12 02:40:56;;;;;;;855.33;800.33;;;8.30;99.90;;;;;;5048478;28;20447;-66
2024/02/12 02:43:24;;;;;;;847.03;792.20;;;8.30;99.90;;;;;;5052268;28;20858;-66
2024/02/12 02:45:51;;;;;;;849.63;794.87;;;8.30;99.90;;;;;;5052102;28;20485;-66
2024/02/12 02:48:19;;;;;;;844.43;789.73;;;8.30;99.90;;;;;;5052496;28;20462;-65
2024/02/12 02:50:46;;;;;;;840.87;787.37;;;8.30;99.90;;;;;;5052185;28;20459;-66
2024/02/12 02:53:12;;;;;;;839.33;785.70;;;8.30;99.90;;;;;;5051989;28;20471;-66
2024/02/12 02:55:39;;;;;;;846.00;791.77;;;8.20;99.90;;;;;;5048829;28;20458;-65
2024/02/12 02:58:06;;;;;;;849.43;794.33;;;8.20;99.90;;;;;;5052051;28;20465;-65
2024/02/12 03:00:36;;;;;;;844.97;790.60;;;8.20;99.90;;;;;;5052078;28;20459;-65
2024/02/12 03:03:03;;;;;;;839.83;785.07;;;8.10;99.90;;;;;;5045324;28;20557;-65
2024/02/12 03:05:30;;;;;;;846.83;792.07;;;8.10;99.90;;;;;;5052395;28;20462;-66
2024/02/12 03:07:58;;;;;;;840.37;785.47;;;8.10;99.90;;;;;;5046363;28;20479;-66
2024/02/12 03:10:25;;;;;;;857.33;801.97;;;8.10;99.90;;;;;;5051292;28;20964;-65
2024/02/12 03:12:53;;;;;;;854.30;798.73;;;8.10;99.90;;;;;;5051399;28;20497;-66
2024/02/12 03:15:20;;;;;;;847.10;791.83;;;8.00;99.90;;;;;;5052495;28;20833;-66
2024/02/12 03:17:48;;;;;;;845.30;789.40;;;8.00;99.90;;;;;;5051430;28;20447;-65
2024/02/12 03:20:16;;;;;;;853.87;797.60;;;7.90;99.90;;;;;;5051220;28;20534;-66
2024/02/12 03:22:43;;;;;;;869.40;811.27;;;7.90;99.90;;;;;;5050604;28;20475;-66
2024/02/12 03:25:11;;;;;;;842.97;787.83;;;8.00;99.90;;;;;;5047033;28;20455;-65
2024/02/12 03:27:38;;;;;;;831.00;777.20;;;8.10;99.90;;;;;;5044379;28;20479;-65
2024/02/12 03:30:07;;;;;;;827.77;773.67;;;8.10;99.90;;;;;;5048270;28;20978;-66
2024/02/12 03:32:34;;;;;;;821.60;767.30;;;8.10;99.90;;;;;;5051204;28;20553;-66
2024/02/12 03:35:02;;;;;;;812.93;760.50;;;8.20;99.90;;;;;;5051554;28;20524;-66
2024/02/12 03:37:28;;;;;;;793.47;743.20;;;8.20;99.90;;;;;;5051896;28;20481;-66
2024/02/12 03:39:55;;;;;;;774.17;725.07;;;8.20;99.90;;;;;;5051574;28;20538;-65
2024/02/12 03:42:26;;;;;;;777.33;728.67;;;8.20;99.90;;;;;;5051465;28;20220;-66
2024/02/12 03:44:53;;;;;;;781.90;732.10;;;8.20;99.90;;;;;;5048010;28;20528;-65
2024/02/12 03:47:27;;;;;;;770.63;721.97;;;8.20;99.90;;;;;;5048966;28;20475;-66
2024/02/12 04:00:52;;;;;;;844.60;790.00;;;8.00;99.90;;;;;;5051343;28;20442;-69
2024/02/12 04:03:19;;;;;;;858.87;801.47;;;8.00;99.90;;;;;;5051126;28;20483;-66
2024/02/12 04:05:46;;;;;;;851.43;793.70;;;7.90;99.90;;;;;;5051348;28;20455;-66
2024/02/12 04:08:15;;;;;;;850.43;792.33;;;7.90;99.90;;;;;;5046516;28;20480;-66
2024/02/12 04:10:42;;;;;;;858.43;799.00;;;8.00;99.90;;;;;;5038612;28;20936;-66
2024/02/12 04:13:09;;;;;;;841.93;783.80;;;8.00;99.90;;;;;;5048406;28;20466;-66
2024/02/12 04:15:38;;;;;;;834.43;778.43;;;8.00;99.90;;;;;;5046316;28;20451;-65
2024/02/12 04:18:06;;;;;;;842.53;785.47;;;8.10;99.90;;;;;;5051214;28;20942;-66
2024/02/12 04:20:33;;;;;;;822.23;767.13;;;8.10;99.90;;;;;;5051193;28;20459;-66
2024/02/12 04:23:01;;;;;;;821.00;766.37;;;8.10;99.90;;;;;;5049921;28;20499;-66
2024/02/12 04:25:30;;;;;;;829.53;774.87;;;8.10;99.90;;;;;;5048355;28;20509;-66
2024/02/12 04:28:00;;;;;;;795.50;743.80;;;8.10;99.90;;;;;;5049464;28;20479;-65
2024/02/12 04:30:29;;;;;;;741.73;693.87;;;8.20;99.90;;;;;;5044140;28;20455;-65
2024/02/12 04:32:58;;;;;;;686.17;642.60;;;8.20;99.90;;;;;;5052232;28;20471;-66
2024/02/12 04:35:25;;;;;;;690.60;646.80;;;8.20;99.90;;;;;;5054117;28;20446;-65
2024/02/12 04:37:54;;;;;;;685.00;642.83;;;8.20;99.90;;;;;;5049922;28;20521;-66
2024/02/12 04:40:23;;;;;;;692.80;650.10;;;8.20;99.90;;;;;;5049580;28;20497;-65
2024/02/12 04:42:52;;;;;;;685.90;643.60;;;8.20;99.90;;;;;;5049493;28;20476;-66
2024/02/12 04:45:20;;;;;;;660.33;621.10;;;8.20;99.90;;;;;;5049715;28;20466;-65
2024/02/12 04:47:47;;;;;;;639.70;601.30;;;8.20;99.90;;;;;;5051881;28;20835;-66
2024/02/12 04:50:14;;;;;;;663.70;624.93;;;8.20;99.90;;;;;;5048627;28;20447;-66
2024/02/12 04:52:40;;;;;;;619.97;582.50;;;8.20;99.90;;;;;;5052431;28;20471;-66
2024/02/12 04:55:10;;;;;;;591.97;556.93;;;8.20;99.90;;;;;;5050662;28;20447;-66
2024/02/12 04:57:37;;;;;;;577.67;543.47;;;8.20;99.90;;;;;;5048823;28;20450;-66
2024/02/12 05:00:10;;;;;;;593.37;558.07;;;8.20;99.90;;;;;;5044920;28;20951;-66
2024/02/12 05:02:37;;;;;;;587.07;552.27;;;8.20;99.90;;;;;;5049281;28;20473;-66
2024/02/12 05:05:05;;;;;;;515.27;484.83;;;8.20;99.90;;;;;;5054576;28;20451;-65
2024/02/12 05:07:32;;;;;;;528.87;498.47;;;8.20;99.90;;;;;;5045906;28;20490;-66
2024/02/12 05:09:59;;;;;;;496.67;468.13;;;8.20;99.90;;;;;;5054026;28;20962;-66
2024/02/12 05:12:28;;;;;;;493.77;464.73;;;8.20;99.90;;;;;;5046031;28;20827;-66
2024/02/12 05:14:55;;;;;;;524.30;494.10;;;8.20;99.90;;;;;;5053761;28;20901;-66
2024/02/12 05:17:31;;;;;;;542.80;512.00;;;8.10;99.90;;;;;;5051495;28;20917;-66
2024/02/12 05:22:43;;;;;;;550.60;518.37;;;8.10;99.90;;;;;;5053947;28;20453;-66
2024/02/12 05:25:09;;;;;;;564.27;532.00;;;8.00;99.90;;;;;;5053487;28;20965;-66
2024/02/12 05:27:36;;;;;;;590.17;554.40;;;8.00;99.90;;;;;;5051265;28;20479;-66
2024/02/12 05:30:04;;;;;;;562.73;529.03;;;8.00;99.90;;;;;;5053211;28;20456;-65
2024/02/12 05:32:32;;;;;;;569.37;535.67;;;8.00;99.90;;;;;;5053346;28;20507;-65
2024/02/12 05:34:59;;;;;;;580.93;546.37;;;8.00;99.90;;;;;;5053607;28;20451;-66
2024/02/12 05:37:26;;;;;;;586.50;550.37;;;8.00;99.90;;;;;;5049311;28;20479;-65
2024/02/12 05:39:53;;;;;;;577.63;542.83;;;8.00;99.90;;;;;;5052089;28;20489;-65
2024/02/12 05:42:19;;;;;;;575.30;538.07;;;8.00;99.90;;;;;;5052927;28;20842;-65
2024/02/12 05:44:46;;;;;;;563.90;530.90;;;7.90;99.90;;;;;;5053364;28;20453;-65
2024/02/12 05:47:13;;;;;;;531.97;499.23;;;7.80;99.90;;;;;;5053543;28;20911;-65
2024/02/12 05:49:42;;;;;;;560.33;527.40;;;7.80;99.90;;;;;;5053311;28;20832;-66
2024/02/12 05:52:09;;;;;;;561.30;529.60;;;7.70;99.90;;;;;;5044999;28;20955;-66
2024/02/12 05:54:36;;;;;;;518.20;488.47;;;7.60;99.90;;;;;;5052679;28;20455;-66
2024/02/12 05:57:04;;;;;;;528.60;499.60;;;7.60;99.90;;;;;;5046202;28;20440;-66
2024/02/12 05:59:33;;;;;;;522.43;493.33;;;7.50;99.90;;;;;;5052717;28;20486;-65
2024/02/12 06:02:02;;;;;;;519.17;490.17;;;7.50;99.90;;;;;;5044799;28;20828;-68
2024/02/12 06:04:29;;;;;;;520.07;491.03;;;7.40;99.90;;;;;;5042447;28;20440;-68
2024/02/12 06:06:58;;;;;;;507.93;479.63;;;7.40;99.90;;;;;;5045916;28;20471;-66
2024/02/12 06:09:24;;;;;;;497.80;469.60;;;7.40;99.90;;;;;;5044725;28;20460;-65
2024/02/12 06:11:51;;;;;;;503.57;475.67;;;7.50;99.90;;;;;;5052475;28;20464;-66
2024/02/12 06:14:18;;;;;;;517.23;488.57;;;7.30;99.90;;;;;;5053360;28;20479;-66
2024/02/12 06:16:45;;;;;;;545.37;514.30;;;7.20;99.90;;;;;;5054249;28;20451;-66
2024/02/12 06:19:12;;;;;;;558.40;526.10;;;7.20;99.90;;;;;;5051964;28;20447;-66
2024/02/12 06:21:39;;;;;;;593.50;558.70;;;7.20;99.90;;;;;;5052477;28;20451;-65
2024/02/12 06:24:07;;;;;;;581.93;546.93;;;7.10;99.90;;;;;;5052712;28;20528;-66
2024/02/12 06:26:34;;;;;;;591.83;556.30;;;7.20;99.90;;;;;;5045668;28;20456;-65
2024/02/12 06:29:01;;;;;;;617.30;580.67;;;7.10;99.90;;;;;;5047757;28;20483;-66
2024/02/12 06:31:28;;;;;;;626.93;588.43;;;7.10;99.90;;;;;;5047761;28;20448;-66
2024/02/12 06:33:55;;;;;;;660.83;618.83;;;7.20;99.90;;;;;;5051277;28;20886;-65
2024/02/12 06:36:22;;;;;;;679.17;634.07;;;7.20;99.90;;;;;;5045929;28;20459;-66
2024/02/12 06:38:49;;;;;;;690.97;644.90;;;7.10;99.90;;;;;;5050086;28;20521;-66
2024/02/12 06:41:20;;;;;;;703.30;656.33;;;7.10;99.90;;;;;;5049972;28;20938;-66
2024/02/12 06:43:47;;;;;;;713.00;665.40;;;7.10;99.90;;;;;;5043732;28;20471;-65
2024/02/12 06:46:14;;;;;;;719.20;671.90;;;7.10;99.90;;;;;;5049533;28;20463;-66
2024/02/12 06:48:41;;;;;;;708.93;662.20;;;7.20;99.90;;;;;;5049311;28;20479;-66
2024/02/12 06:51:09;;;;;;;726.50;678.20;;;7.20;99.90;;;;;;5052115;28;20459;-65
2024/02/12 06:53:36;;;;;;;719.33;671.67;;;7.20;99.90;;;;;;5037183;28;21045;-66
2024/02/12 06:56:04;;;;;;;710.73;663.47;;;7.20;99.90;;;;;;5050084;28;20458;-66
2024/02/12 06:58:32;;;;;;;700.30;653.43;;;7.30;99.90;;;;;;5038879;28;20452;-66
2024/02/12 07:00:59;;;;;;;697.43;650.73;;;7.30;99.90;;;;;;5040261;28;20451;-66
2024/02/12 07:03:28;;;;;;;677.87;633.37;;;7.30;99.90;;;;;;5051675;28;20482;-65
2024/02/12 07:05:55;;;;;;;672.57;628.80;;;7.30;99.90;;;;;;5034328;28;20458;-66
2024/02/12 07:08:22;;;;;;;639.27;597.00;;;7.30;99.90;;;;;;5045837;28;20479;-65
2024/02/12 07:10:49;;;;;;;624.97;583.77;;;7.40;99.90;;;;;;5040257;28;20444;-65
2024/02/12 07:13:16;;;;;;;615.30;576.73;;;7.50;99.90;;;;;;5046046;28;20471;-66
2024/02/12 07:15:44;;;;;;;595.70;558.90;;;7.50;99.90;;;;;;5050080;28;20447;-66
2024/02/12 07:18:11;;;;;;;570.67;535.63;;;7.50;99.90;;;;;;5039907;28;20451;-65
2024/02/12 07:20:39;;;;;;;565.40;530.43;;;7.50;99.90;;;;;;5042676;28;20451;-65
2024/02/12 07:23:06;;;;;;;535.70;501.90;;;7.50;99.90;;;;;;5047234;28;20475;-66
2024/02/12 07:25:34;;;;;;;525.10;492.77;;;7.50;99.90;;;;;;5044820;28;20479;-66
2024/02/12 07:28:01;;;;;;;525.83;494.20;;;7.70;99.90;;;;;;5051922;28;20939;-66
2024/02/12 07:30:30;;;;;;;524.53;493.80;;;7.60;99.90;;;;;;5051807;28;20466;-66
2024/02/12 07:32:59;;;;;;;518.10;487.80;;;7.70;99.90;;;;;;5051574;28;20528;-65
2024/02/12 07:35:29;;;;;;;503.30;474.80;;;7.60;99.90;;;;;;5051785;28;20448;-69
2024/02/12 07:37:56;;;;;;;513.90;485.47;;;7.70;99.90;;;;;;5051854;28;20450;-66
2024/02/12 07:40:23;;;;;;;509.73;480.77;;;7.70;99.90;;;;;;5051803;28;20451;-66
2024/02/12 07:42:52;;;;;;;510.97;480.60;;;7.70;99.90;;;;;;5051467;28;20761;-66
2024/02/12 07:45:19;;;;;;;504.90;476.20;;;7.60;99.90;;;;;;5052053;28;20520;-66
2024/02/12 07:47:46;;;;;;;479.97;452.77;;;7.70;99.90;;;;;;5051718;28;20816;-66
2024/02/12 07:50:14;;;;;;;460.80;435.13;;;7.70;99.90;;;;;;5051782;28;20542;-66
2024/02/12 07:52:42;;;;;;;452.33;426.80;;;7.70;99.90;;;;;;5051477;28;20471;-66
2024/02/12 07:55:11;;;;;;;459.57;434.27;;;7.70;99.90;;;;;;5051533;28;20938;-66
2024/02/12 07:57:38;;;;;;;466.60;440.97;;;7.80;99.90;;;;;;5051387;28;20817;-66
2024/02/12 08:00:08;;;;;;;473.07;447.37;;;7.80;99.90;;;;;;5051099;28;20463;-65
2024/02/12 08:02:35;;;;;;;498.93;472.33;;;7.80;99.90;;;;;;5050179;28;20475;-66
2024/02/12 08:05:04;;;;;;;506.50;479.50;;;7.80;99.90;;;;;;5055952;28;20450;-65
2024/02/12 08:07:32;;;;;;;497.13;470.53;;;7.80;99.90;;;;;;5054916;28;21076;-66
2024/02/12 08:10:00;;;;;;;507.90;480.97;;;7.80;99.90;;;;;;5055371;28;20466;-65
2024/02/12 08:12:26;;;;;;;520.53;492.37;;;7.80;99.90;;;;;;5054879;28;20478;-65
2024/02/12 08:14:53;;;;;;;523.23;495.23;;;7.80;99.90;;;;;;5054910;28;20451;-65
2024/02/12 08:17:20;;;;;;;544.37;515.20;;;7.80;99.90;;;;;;5054705;28;20453;-65
2024/02/12 08:19:47;;;;;;;536.03;506.87;;;7.90;99.90;;;;;;5055225;28;20950;-65
2024/02/12 08:22:13;;;;;;;504.17;478.43;;;8.00;99.90;;;;;;5054583;28;20465;-65
2024/02/12 08:24:42;;;;;;;456.53;433.63;;;8.00;99.90;;;;;;5053396;28;20443;-64
2024/02/12 08:27:09;;;;;;;447.90;426.07;;;8.10;99.90;;;;;;5054410;28;20504;-66
2024/02/12 08:29:36;;;;;;;398.97;380.17;;;8.10;99.90;;;;;;5054554;28;20711;-66
2024/02/12 08:32:04;;;;;;;359.10;342.00;;;8.20;99.90;;;;;;5054150;28;20455;-65
2024/02/12 08:34:30;;;;;;;368.23;351.53;;;8.20;99.90;;;;;;5054297;28;20467;-65
2024/02/12 08:36:57;;;;;;;308.00;293.53;;;8.20;99.90;;;;;;5054880;28;20457;-65
2024/02/12 08:39:24;;;;;;;329.07;314.50;;;8.30;99.90;;;;;;5054155;28;20449;-64
2024/02/12 08:41:52;;;;;;;305.37;291.70;;;8.30;99.90;;;;;;5052695;28;20469;-65
2024/02/12 08:44:19;;;;;;;266.50;254.50;;;8.40;99.90;;;;;;5054469;28;20462;-64
2024/02/12 08:46:46;;;;;;;263.87;252.57;;;8.40;99.90;;;;;;5054459;28;20482;-65
2024/02/12 08:49:14;;;;;;;210.57;201.13;;;8.60;99.90;;;;;;5054055;28;20479;-66
2024/02/12 08:51:42;;;;;;;205.47;196.37;;;8.60;99.90;;;;;;5052745;28;20487;-66
2024/02/12 08:54:08;;;;;;;150.67;142.60;;;8.70;99.90;;;;;;5053905;28;20475;-66
2024/02/12 08:56:39;;;;;;;150.17;143.53;;;8.90;99.90;;;;;;5054893;28;20459;-66
2024/02/12 08:59:07;;;;;;;107.63;102.43;;;8.90;99.90;;;;;;5054775;28;20541;-66
2024/02/12 09:01:36;;;;;;;114.77;109.43;;;8.90;99.90;;;;;;5054748;28;20455;-66
2024/02/12 09:04:03;;;;;;;140.57;133.83;;;8.90;99.90;;;;;;5054656;28;20471;-65
2024/02/12 09:06:29;;;;;;;122.27;116.67;;;8.90;99.90;;;;;;5054722;28;20808;-66
2024/02/12 09:08:56;;;;;;;109.70;104.50;;;8.90;99.90;;;;;;5054302;28;20478;-64
2024/02/12 09:11:23;;;;;;;103.00;97.60;;;9.00;99.90;;;;;;5054248;28;20451;-66
2024/02/12 09:13:50;;;;;;;105.00;99.27;;;9.00;99.90;;;;;;5053769;28;20479;-66
2024/02/12 09:16:19;;;;;;;75.10;70.63;;;9.20;99.90;;;;;;5054295;28;20546;-66
2024/02/12 09:18:46;;;;;;;56.67;52.90;;;9.10;99.90;;;;;;5054192;28;20695;-66
2024/02/12 09:21:14;;;;;;;71.90;67.30;;;9.20;99.90;;;;;;5054175;28;20542;-65
2024/02/12 09:23:41;;;;;;;39.10;36.10;;;9.40;99.90;;;;;;5053768;28;20485;-66
2024/02/12 09:26:08;;;;;;;35.57;32.70;;;9.40;99.90;;;;;;5054368;28;20458;-66
2024/02/12 09:28:35;;;;;;;30.60;27.43;;;9.40;99.90;;;;;;5053893;28;20486;-66
2024/02/12 09:31:00;;;;;;;30.90;28.00;;;9.30;99.90;;;;;;5054139;28;20458;-66
2024/02/12 09:33:29;;;;;;;27.90;25.40;;;9.20;99.90;;;;;;5053905;28;20902;-66
2024/02/12 09:35:56;;;;;;;28.00;23.13;;;9.20;99.90;;;;;;5053944;28;20549;-66
2024/02/12 09:38:27;;;;;;;20.17;16.60;;;9.10;99.90;;;;;;5053935;28;20447;-66
2024/02/12 09:40:53;;;;;;;28.50;22.10;;;9.00;99.90;;;;;;5054042;28;20447;-65
2024/02/12 09:43:22;;;;;;;25.97;23.83;;;9.00;99.90;;;;;;5053951;28;20468;-66
2024/02/12 09:45:51;;;;;;;31.07;28.63;;;9.00;99.90;;;;;;5053915;28;20839;-67
2024/02/12 09:48:20;;;;;;;32.47;29.93;;;9.00;99.90;;;;;;5053631;28;20554;-65
2024/02/12 09:50:51;;;;;;;27.10;24.90;;;9.00;99.90;;;;;;5054057;28;20467;-66
2024/02/12 09:53:19;;;;;;;29.10;27.10;;;9.10;99.90;;;;;;5053331;28;20505;-66
2024/02/12 09:55:47;;;;;;;30.37;28.03;;;8.90;99.90;;;;;;5053980;28;20457;-66
2024/02/12 09:58:15;;;;;;;36.10;33.70;;;9.00;99.90;;;;;;5053609;28;20542;-66
2024/02/12 10:00:42;;;;;;;22.20;20.40;;;9.30;99.90;;;;;;5053339;28;20473;-66
2024/02/12 10:03:11;;;;;;;19.13;17.23;;;9.50;99.90;;;;;;5052613;28;20558;-66
2024/02/12 10:05:41;;;;;;;17.33;15.63;;;9.70;99.90;;;;;;5053081;28;20455;-67
2024/02/12 10:08:20;;;;;;;19.93;17.50;;;9.70;99.90;;;;;;5053182;28;20487;-66
2024/02/12 10:10:47;;;;;;;14.63;12.33;;;9.70;99.90;;;;;;5053395;28;20447;-66
2024/02/12 10:13:14;;;;;;;19.63;14.43;;;9.70;99.90;;;;;;5052708;28;20477;-66
2024/02/12 10:15:41;;;;;;;12.37;10.70;;;9.80;99.90;;;;;;5053218;28;20459;-67
2024/02/12 10:18:09;;;;;;;12.83;9.13;;;9.80;99.90;;;;;;5053283;28;20457;-66
2024/02/12 10:20:39;;;;;;;18.73;9.93;;;10.00;99.90;;;;;;5052980;28;20458;-67
2024/02/12 10:23:08;;;;;;;17.80;9.83;;;10.10;99.90;;;;;;5052667;28;20650;-66
2024/02/12 10:25:42;;;;;;;12.30;9.67;;;10.10;99.90;;;;;;5052418;28;20513;-66
2024/02/12 10:28:09;;;;;;;9.27;6.40;;;10.20;99.90;;;;;;5052503;28;20450;-65
2024/02/12 10:30:36;;;;;;;10.97;6.80;;;10.20;99.90;;;;;;5053301;28;20464;-65
2024/02/12 10:33:05;;;;;;;19.37;9.27;;;10.20;99.90;;;;;;5052985;28;20845;-66
2024/02/12 10:35:34;;;;;;;13.20;8.97;;;10.30;99.90;;;;;;5052851;28;20462;-66
2024/02/12 10:38:01;;;;;;;13.90;6.90;;;10.20;99.90;;;;;;5053180;28;20538;-65
2024/02/12 10:40:30;;;;;;;11.40;7.07;;;9.90;99.90;;;;;;5052603;28;20461;-66
2024/02/12 10:43:03;;;;;;;15.40;6.97;;;9.80;99.90;;;;;;5044279;28;20475;-65
2024/02/12 10:45:31;;;;;;;13.07;6.30;;;9.80;99.90;;;;;;5053084;28;20466;-66
2024/02/12 10:47:58;;;;;;;10.67;5.87;;;9.70;99.90;;;;;;5053011;28;20454;-66
2024/02/12 10:50:26;;;;;;;14.40;8.03;;;9.90;99.90;;;;;;5052310;28;20486;-66
2024/02/12 10:52:54;;;;;;;17.53;8.17;;;9.90;99.90;;;;;;5051885;28;20471;-65
2024/02/12 10:55:22;;;;;;;12.60;7.63;;;9.80;99.90;;;;;;5052186;28;20477;-66
2024/02/12 10:57:50;;;;;;;13.00;6.83;;;10.10;99.90;;;;;;5052190;28;20459;-66
2024/02/12 11:00:23;;;;;;;9.23;5.60;;;10.10;99.90;;;;;;5052045;28;20459;-65
2024/02/12 11:02:50;;;;;;;10.07;5.87;;;10.20;99.90;;;;;;5051589;28;20471;-66
2024/02/12 11:05:18;;;;;;;9.57;5.07;;;10.20;99.90;;;;;;5052153;28;20526;-64
2024/02/12 11:07:46;;;;;;;14.13;5.70;;;10.40;99.90;;;;;;5051984;28;20462;-66
2024/02/12 11:10:18;;;;;;;13.77;5.77;;;10.60;99.90;;;;;;5052722;28;20483;-65
2024/02/12 11:12:47;;;;;;;9.00;4.37;;;10.70;99.90;;;;;;5051964;28;20847;-66
2024/02/12 11:15:24;;;;;;;9.93;5.40;;;10.70;99.90;;;;;;5052233;28;20488;-66
2024/02/12 11:17:51;;;;;;;10.97;4.70;;;11.10;99.90;;;;;;5052119;28;20887;-65
2024/02/12 11:20:18;;;;;;;12.73;5.20;;;11.10;99.90;;;;;;5051838;28;20447;-64
2024/02/12 11:22:46;;;;;;;9.17;4.87;;;11.10;99.90;;;;;;5051611;28;20477;-65
2024/02/12 11:25:16;;;;;;;10.03;4.60;;;11.40;99.90;;;;;;5052021;28;20462;-65
2024/02/12 11:27:49;;;;;;;12.00;5.43;;;11.90;98.40;;;;;;5052091;28;20458;-66
2024/02/12 11:30:17;;;;;;;11.07;4.03;;;12.20;98.50;;;;;;5051819;28;21055;-65
2024/02/12 11:32:46;;;;;;;9.80;3.80;;;12.50;92.00;;;;;;5051258;28;20895;-66
2024/02/12 11:35:14;;;;;;;6.70;2.63;;;12.70;92.10;;;;;;5052335;28;20451;-66
2024/02/12 11:37:42;;;;;;;7.93;3.07;;;12.60;92.00;;;;;;5051360;28;20829;-66
2024/02/12 11:40:12;;;;;;;7.47;3.20;;;12.80;92.10;;;;;;5052252;28;20458;-66
2024/02/12 11:42:44;;;;;;;8.60;3.10;;;12.70;92.10;;;;;;5051321;28;20479;-65
2024/02/12 11:45:11;;;;;;;7.60;3.60;;;13.40;87.80;;;;;;5051577;28;20461;-66
2024/02/12 11:47:38;;;;;;;6.43;2.37;;;12.90;82.00;;;;;;5051536;28;20989;-65
2024/02/12 11:50:08;;;;;;;12.20;3.20;;;12.40;83.70;;;;;;5051710;28;20478;-66
2024/02/12 11:52:35;;;;;;;8.10;2.80;;;12.20;86.70;;;;;;5051581;28;20486;-65
2024/02/12 11:55:07;;;;;;;7.97;2.73;;;12.20;86.70;;;;;;5051686;28;20509;-66
2024/02/12 11:57:33;;;;;;;12.63;3.23;;;12.50;86.90;;;;;;5051621;28;20462;-66
2024/02/12 12:00:00;;;;;;;9.60;3.73;;;12.40;91.90;;;;;;5051388;28;20466;-66
2024/02/12 12:02:27;;;;;;;9.73;4.00;;;12.00;86.50;;;;;;5050864;28;20478;-66
2024/02/12 12:04:54;;;;;;;8.63;2.87;;;11.80;91.70;;;;;;5051667;28;20458;-65
2024/02/12 12:07:24;;;;;;;13.53;3.70;;;11.40;91.50;;;;;;5051570;28;20462;-66
2024/02/12 12:10:01;;;;;;;8.03;4.83;;;11.20;91.50;;;;;;5051391;28;20920;-65
2024/02/12 12:12:28;;;;;;;15.20;3.83;;;11.20;91.50;;;;;;5050962;28;20474;-65
2024/02/12 12:15:03;;;;;;;7.40;3.83;;;11.20;91.40;;;;;;5051487;28;20458;-66
2024/02/12 12:17:30;;;;;;;13.03;3.83;;;11.20;91.50;;;;;;5051396;28;20536;-65
2024/02/12 12:19:58;;;;;;;13.37;2.87;;;10.90;89.50;;;;;;5051604;28;21004;-66
2024/02/12 12:22:27;;;;;;;7.37;3.17;;;11.10;91.40;;;;;;5051034;28;20513;-66
2024/02/12 12:24:54;;;;;;;12.33;2.53;;;11.30;91.50;;;;;;5051403;28;20454;-65
2024/02/12 12:27:25;;;;;;;8.20;3.10;;;11.50;91.60;;;;;;5051733;28;20465;-66
2024/02/12 12:29:53;;;;;;;14.63;2.50;;;11.50;91.50;;;;;;5051392;28;20490;-65
2024/02/12 12:32:20;;;;;;;8.87;3.20;;;11.40;85.20;;;;;;5050988;28;20467;-65
2024/02/12 12:34:47;;;;;;;8.90;2.93;;;11.40;91.40;;;;;;5051187;28;20455;-64
2024/02/12 12:37:14;;;;;;;7.43;2.47;;;11.50;91.60;;;;;;5050972;28;20451;-66
2024/02/12 12:39:44;;;;;;;9.40;2.97;;;11.50;86.00;;;;;;5051433;28;20455;-66